Weather at Al Fahim Palace Heliport

Public forecast

Using degrees Celsius for public forecast. Weather courtesy of forecast.io.

Closest aviation weather report (METAR) to Al Fahim Palace Heliport

Closest report is Al Bateen Executive Airport, 6.1 nm (11.3 km) E.

2024/07/24 15:00 (retrieved 23 minutes ago)

OMAD 241500Z 35006KT 310V030 CAVOK 38/23 Q0992 NOSIG

Closest aviation forecast (TAF) to Al Fahim Palace Heliport

Closest forecast is Al Bateen Executive Airport, 6.1 nm (11.3 km) E.

2024/07/24 12:00 (retrieved 3 hours ago)

TAF OMAD 241100Z 2412/2518 30011KT CAVOK BECMG 2415/2417 19005KT BECMG 2506/2508 30012KT BECMG 2515/2517 VRB02KT